createdAt,value
2018-02-15T00:01:39.884Z,77.16
2018-02-15T00:04:07.530Z,77.02
2018-02-15T00:06:35.106Z,76.98
2018-02-15T00:09:02.678Z,76.53
2018-02-15T00:11:30.329Z,76.47
2018-02-15T00:13:58.706Z,76.48
2018-02-15T00:16:26.277Z,76.26
2018-02-15T00:18:54.168Z,76.46
2018-02-15T00:21:21.814Z,76.47
2018-02-15T00:23:49.412Z,76.33
2018-02-15T00:26:17.073Z,76.28
2018-02-15T00:28:44.722Z,76.36
2018-02-15T00:31:12.276Z,76.28
2018-02-15T00:33:39.918Z,76.30
2018-02-15T00:36:07.494Z,76.31
2018-02-15T00:38:35.093Z,76.37
2018-02-15T00:41:02.773Z,76.45
2018-02-15T00:43:30.364Z,76.34
2018-02-15T00:45:57.944Z,76.38
2018-02-15T00:48:25.577Z,75.93
2018-02-15T00:50:53.160Z,75.90
2018-02-15T00:53:20.741Z,75.83
2018-02-15T00:55:48.386Z,75.40
2018-02-15T00:58:15.952Z,75.13
2018-02-15T01:00:43.543Z,75.12
2018-02-15T01:03:11.186Z,75.16
2018-02-15T01:05:38.759Z,75.54
2018-02-15T01:08:06.350Z,75.92
2018-02-15T01:10:33.997Z,75.66
2018-02-15T01:13:01.667Z,75.59
2018-02-15T01:15:29.237Z,75.88
2018-02-15T01:17:56.857Z,75.78
2018-02-15T01:20:24.420Z,75.75
2018-02-15T01:22:52.474Z,75.89
2018-02-15T01:25:20.098Z,75.98
2018-02-15T01:27:47.681Z,75.87
2018-02-15T01:30:15.247Z,75.79
2018-02-15T01:32:42.881Z,75.39
2018-02-15T01:35:11.953Z,75.23
2018-02-15T01:37:39.925Z,75.28
2018-02-15T01:40:07.557Z,75.02
2018-02-15T01:42:35.355Z,74.81
2018-02-15T01:45:02.985Z,75.07
2018-02-15T01:47:30.579Z,74.68
2018-02-15T01:50:04.132Z,74.72
2018-02-15T01:52:31.744Z,74.87
2018-02-15T01:54:59.318Z,74.58
2018-02-15T01:57:26.876Z,74.49
2018-02-15T01:59:54.512Z,74.62
2018-02-15T02:02:22.630Z,74.67
2018-02-15T02:04:50.196Z,74.64
2018-02-15T02:07:17.829Z,74.56
2018-02-15T02:09:45.477Z,74.45
2018-02-15T02:12:13.045Z,74.60
2018-02-15T02:14:40.657Z,74.58
2018-02-15T02:17:08.241Z,74.99
2018-02-15T02:19:36.596Z,75.22
2018-02-15T02:22:04.240Z,75.86
2018-02-15T02:24:31.959Z,75.96
2018-02-15T02:26:59.525Z,76.32
2018-02-15T02:29:27.160Z,76.29
2018-02-15T02:31:54.728Z,76.39
2018-02-15T02:34:22.309Z,76.63
2018-02-15T02:36:49.911Z,76.50
2018-02-15T02:39:17.491Z,76.88
2018-02-15T02:41:45.126Z,77.27
2018-02-15T02:44:12.744Z,77.34
2018-02-15T02:46:40.319Z,77.41
2018-02-15T02:49:07.938Z,77.79
2018-02-15T02:51:35.633Z,77.28
2018-02-15T02:54:03.202Z,77.22
2018-02-15T02:56:30.835Z,77.27
2018-02-15T02:58:58.442Z,77.36
2018-02-15T03:01:26.008Z,77.38
2018-02-15T03:03:53.592Z,77.36
2018-02-15T03:06:21.215Z,77.37
2018-02-15T03:08:48.781Z,77.27
2018-02-15T03:11:16.357Z,77.21
2018-02-15T03:13:43.991Z,77.12
2018-02-15T03:16:11.837Z,76.96
2018-02-15T03:18:39.475Z,76.66
2018-02-15T03:21:07.153Z,76.13
2018-02-15T03:23:34.729Z,76.20
2018-02-15T03:26:02.457Z,76.00
2018-02-15T03:28:30.086Z,75.56
2018-02-15T03:30:57.644Z,75.60
2018-02-15T03:33:25.238Z,75.25
2018-02-15T03:35:52.856Z,74.97
2018-02-15T03:38:20.420Z,75.03
2018-02-15T03:40:48.066Z,74.57
2018-02-15T03:43:16.381Z,74.36
2018-02-15T03:45:43.968Z,74.48
2018-02-15T03:48:11.552Z,74.21
2018-02-15T03:50:39.163Z,74.35
2018-02-15T03:53:06.805Z,74.16
2018-02-15T03:55:34.390Z,74.01
2018-02-15T03:58:02.020Z,73.96
2018-02-15T04:00:29.589Z,73.70
2018-02-15T04:02:57.148Z,73.80
2018-02-15T04:05:24.754Z,73.92
2018-02-15T04:07:52.348Z,74.00
2018-02-15T04:10:19.974Z,73.98
2018-02-15T04:12:47.940Z,74.00
2018-02-15T04:15:15.538Z,74.02
2018-02-15T04:17:43.118Z,74.10
2018-02-15T04:20:10.846Z,74.07
2018-02-15T04:22:38.426Z,74.01
2018-02-15T04:25:05.994Z,74.00
2018-02-15T04:27:33.777Z,74.06
2018-02-15T04:30:01.357Z,73.96
2018-02-15T04:32:29.294Z,73.38
2018-02-15T04:34:56.922Z,73.22
2018-02-15T04:37:24.563Z,72.95
2018-02-15T04:39:52.168Z,72.53
2018-02-15T04:42:19.830Z,72.62
2018-02-15T04:44:47.465Z,72.27
2018-02-15T04:47:15.042Z,72.32
2018-02-15T04:49:42.661Z,72.07
2018-02-15T04:52:10.234Z,71.84
2018-02-15T04:54:37.835Z,71.70
2018-02-15T04:57:05.525Z,72.06
2018-02-15T04:59:33.600Z,72.06
2018-02-15T05:02:01.188Z,72.00
2018-02-15T05:04:28.811Z,72.00
2018-02-15T05:06:59.908Z,71.93
2018-02-15T05:09:27.549Z,71.92
2018-02-15T05:11:55.204Z,71.77
2018-02-15T05:14:22.775Z,71.93
2018-02-15T05:16:50.409Z,71.82
2018-02-15T05:19:18.034Z,72.00
2018-02-15T05:21:45.678Z,71.95
2018-02-15T05:24:13.759Z,71.74
2018-02-15T05:26:41.418Z,70.99
2018-02-15T05:29:09.150Z,71.05
2018-02-15T05:31:36.744Z,70.62
2018-02-15T05:34:05.237Z,70.03
2018-02-15T05:36:32.815Z,69.52
2018-02-15T05:39:00.393Z,69.36
2018-02-15T05:41:28.023Z,69.54
2018-02-15T05:43:55.631Z,69.57
2018-02-15T05:46:23.246Z,69.45
2018-02-15T05:48:50.905Z,70.13
2018-02-15T05:51:19.174Z,70.19
2018-02-15T05:53:46.760Z,70.50
2018-02-15T05:56:14.388Z,70.91
2018-02-15T05:58:42.038Z,70.73
2018-02-15T06:01:09.614Z,67.79
2018-02-15T06:03:37.228Z,64.63
2018-02-15T06:06:04.768Z,63.11
2018-02-15T06:08:32.387Z,61.18
2018-02-15T06:10:59.985Z,62.67
2018-02-15T06:13:27.542Z,62.57
2018-02-15T06:15:55.092Z,63.02
2018-02-15T06:18:22.692Z,59.58
2018-02-15T06:20:50.232Z,57.73
2018-02-15T06:23:17.773Z,55.48
2018-02-15T06:25:45.765Z,52.81
2018-02-15T06:28:13.330Z,50.93
2018-02-15T06:30:40.983Z,51.10
2018-02-15T06:33:08.575Z,49.52
2018-02-15T06:35:36.145Z,50.47
2018-02-15T06:38:03.676Z,49.50
2018-02-15T06:40:31.553Z,49.47
2018-02-15T06:42:59.149Z,48.14
2018-02-15T06:45:26.694Z,49.49
2018-02-15T06:47:55.077Z,49.23
2018-02-15T06:50:22.628Z,48.82
2018-02-15T06:52:50.203Z,48.19
2018-02-15T06:55:17.810Z,49.21
2018-02-15T06:57:45.410Z,50.06
2018-02-15T07:00:12.952Z,52.90
2018-02-15T07:02:40.605Z,54.03
2018-02-15T07:05:08.145Z,57.40
2018-02-15T07:07:35.997Z,55.20
2018-02-15T07:10:03.619Z,56.46
2018-02-15T07:12:31.261Z,55.55
2018-02-15T07:14:58.836Z,53.31
2018-02-15T07:17:26.509Z,54.83
2018-02-15T07:19:54.044Z,53.53
2018-02-15T07:22:21.576Z,52.85
2018-02-15T07:24:49.212Z,52.49
2018-02-15T07:27:16.768Z,52.03
2018-02-15T07:29:44.320Z,50.76
2018-02-15T07:32:12.041Z,49.59
2018-02-15T07:34:39.603Z,47.19
2018-02-15T07:37:07.184Z,44.26
2018-02-15T07:39:36.352Z,41.79
2018-02-15T07:42:03.897Z,42.43
2018-02-15T07:44:31.529Z,38.92
2018-02-15T07:46:59.138Z,39.80
2018-02-15T07:49:26.817Z,40.23
2018-02-15T07:51:54.338Z,42.43
2018-02-15T07:54:22.029Z,42.20
2018-02-15T07:56:49.621Z,39.71
2018-02-15T07:59:17.195Z,39.53
2018-02-15T08:01:44.826Z,37.71
2018-02-15T08:04:12.384Z,37.80
2018-02-15T08:06:39.988Z,37.83
2018-02-15T08:09:07.824Z,37.52
2018-02-15T08:11:35.367Z,37.50
2018-02-15T08:14:03.012Z,37.29
2018-02-15T08:16:30.631Z,36.54
2018-02-15T08:18:58.175Z,36.23
2018-02-15T08:21:25.735Z,37.29
2018-02-15T08:23:53.376Z,39.11
2018-02-15T08:26:21.001Z,40.32
2018-02-15T08:28:48.557Z,38.48
2018-02-15T08:31:16.220Z,38.75
2018-02-15T08:33:43.958Z,36.89
2018-02-15T08:38:53.800Z,36.25
2018-02-15T08:41:21.368Z,36.62
2018-02-15T08:43:48.886Z,34.88
2018-02-15T08:46:16.539Z,34.84
2018-02-15T08:48:48.892Z,37.43
2018-02-15T08:51:16.477Z,37.56
2018-02-15T08:53:44.131Z,35.33
2018-02-15T08:56:11.756Z,35.09
2018-02-15T08:58:39.448Z,34.04
2018-02-15T09:01:07.079Z,34.39
2018-02-15T09:03:36.024Z,31.68
2018-02-15T09:06:03.646Z,32.88
2018-02-15T09:08:31.403Z,37.22
2018-02-15T09:11:03.209Z,36.96
2018-02-15T09:13:30.810Z,37.36
2018-02-15T09:15:58.366Z,35.72
2018-02-15T09:18:26.011Z,36.31
2018-02-15T09:20:53.666Z,35.21
2018-02-15T09:23:21.254Z,34.62
2018-02-15T09:25:48.775Z,34.92
2018-02-15T09:28:16.322Z,35.22
2018-02-15T09:30:43.852Z,35.32
2018-02-15T09:33:11.382Z,36.57
2018-02-15T09:35:39.063Z,36.42
2018-02-15T09:38:06.583Z,35.90
2018-02-15T09:40:34.241Z,40.39
2018-02-15T09:43:02.172Z,39.94
2018-02-15T09:45:29.706Z,41.51
2018-02-15T09:47:57.255Z,42.79
2018-02-15T09:50:24.851Z,43.33
2018-02-15T09:52:52.403Z,45.78
2018-02-15T09:55:19.928Z,43.34
2018-02-15T09:57:47.575Z,45.01
2018-02-15T10:00:15.129Z,49.39
2018-02-15T10:02:42.651Z,49.98
2018-02-15T10:05:10.229Z,50.99
2018-02-15T10:07:37.834Z,56.09
2018-02-15T10:10:05.402Z,53.90
2018-02-15T10:12:33.047Z,53.36
2018-02-15T10:15:00.662Z,50.92
2018-02-15T10:17:28.188Z,53.75
2018-02-15T10:19:56.476Z,53.68
2018-02-15T10:22:23.994Z,50.33
2018-02-15T10:24:51.519Z,53.33
2018-02-15T10:27:19.090Z,50.45
2018-02-15T10:29:46.714Z,50.37
2018-02-15T10:32:14.314Z,50.46
2018-02-15T10:34:41.900Z,50.43
2018-02-15T10:37:11.271Z,50.32
2018-02-15T10:39:38.842Z,49.59
2018-02-15T10:42:06.426Z,48.20
2018-02-15T10:44:34.018Z,47.54
2018-02-15T10:47:01.615Z,48.88
2018-02-15T10:49:29.263Z,49.23
2018-02-15T10:51:56.786Z,49.67
2018-02-15T10:54:24.368Z,51.31
2018-02-15T10:56:52.140Z,48.13
2018-02-15T10:59:19.689Z,49.19
2018-02-15T11:01:47.236Z,48.61
2018-02-15T11:04:20.328Z,47.41
2018-02-15T11:06:47.857Z,47.07
2018-02-15T11:09:15.396Z,46.00
2018-02-15T11:11:43.006Z,46.73
2018-02-15T11:14:10.608Z,46.24
2018-02-15T11:16:38.175Z,45.42
2018-02-15T11:19:05.765Z,46.13
2018-02-15T11:21:33.303Z,46.32
2018-02-15T11:24:00.874Z,46.23
2018-02-15T11:26:28.476Z,45.59
2018-02-15T11:28:56.013Z,44.29
2018-02-15T11:31:23.546Z,43.65
2018-02-15T11:33:51.336Z,42.34
2018-02-15T11:36:18.869Z,40.74
2018-02-15T11:38:46.515Z,41.37
2018-02-15T11:41:14.142Z,40.54
2018-02-15T11:43:41.670Z,41.79
2018-02-15T11:46:09.202Z,37.76
2018-02-15T11:48:36.860Z,36.25
2018-02-15T11:51:04.458Z,36.13
2018-02-15T11:53:32.042Z,34.83
2018-02-15T11:55:59.610Z,34.23
2018-02-15T11:58:27.151Z,33.15
2018-02-15T12:00:54.742Z,33.04
2018-02-15T12:03:22.322Z,30.90
2018-02-15T12:05:54.113Z,33.29
2018-02-15T12:08:21.664Z,31.74
2018-02-15T12:10:49.713Z,34.20
2018-02-15T12:13:22.188Z,32.64
2018-02-15T12:15:49.852Z,33.08
2018-02-15T12:20:56.695Z,29.21
2018-02-15T12:23:24.681Z,25.17
2018-02-15T12:26:01.881Z,25.35
2018-02-15T12:28:29.416Z,25.04
2018-02-15T12:30:56.956Z,25.42
2018-02-15T12:33:24.555Z,24.89
2018-02-15T12:35:52.080Z,27.03
2018-02-15T12:38:19.646Z,25.31
2018-02-15T12:40:47.343Z,24.49
2018-02-15T12:43:18.082Z,27.64
2018-02-15T12:45:45.735Z,30.17
2018-02-15T12:48:13.693Z,29.75
2018-02-15T12:50:41.374Z,29.67
2018-02-15T12:53:08.909Z,29.11
2018-02-15T12:55:36.494Z,28.03
2018-02-15T12:58:04.771Z,27.31
2018-02-15T13:00:32.290Z,25.92
2018-02-15T13:02:59.886Z,24.78
2018-02-15T13:05:27.422Z,26.93
2018-02-15T13:07:54.953Z,28.22
2018-02-15T13:10:23.687Z,28.02
2018-02-15T13:13:02.900Z,28.68
2018-02-15T13:15:42.139Z,28.62
2018-02-15T13:18:09.656Z,28.31
2018-02-15T13:20:37.173Z,28.60
2018-02-15T13:23:04.951Z,28.62
2018-02-15T13:25:32.479Z,29.13
2018-02-15T13:28:11.756Z,28.05
2018-02-15T13:30:39.293Z,26.77
2018-02-15T13:33:06.821Z,26.98
2018-02-15T13:35:34.390Z,27.33
2018-02-15T13:38:01.906Z,27.25
2018-02-15T13:40:29.485Z,27.44
2018-02-15T13:42:57.183Z,27.62
2018-02-15T13:45:24.721Z,28.62
2018-02-15T13:47:52.267Z,29.58
2018-02-15T13:50:19.900Z,30.43
2018-02-15T13:52:47.459Z,30.57
2018-02-15T13:55:14.995Z,32.17
2018-02-15T13:57:42.575Z,34.05
2018-02-15T14:00:10.141Z,34.58
2018-02-15T14:02:37.741Z,35.79
2018-02-15T14:05:05.399Z,37.23
2018-02-15T14:07:32.927Z,37.52
2018-02-15T14:10:00.515Z,38.71
2018-02-15T14:12:28.108Z,39.12
2018-02-15T14:14:55.632Z,38.73
2018-02-15T14:17:23.244Z,40.06
2018-02-15T14:19:51.606Z,40.25
2018-02-15T14:22:19.127Z,40.85
2018-02-15T14:24:46.652Z,42.29
2018-02-15T14:27:14.216Z,42.41
2018-02-15T14:29:41.766Z,42.73
2018-02-15T14:32:09.286Z,42.84
2018-02-15T14:34:36.892Z,42.93
2018-02-15T14:37:04.428Z,43.36
2018-02-15T14:39:31.951Z,44.13
2018-02-15T14:41:59.513Z,44.29
2018-02-15T14:44:27.159Z,44.28
2018-02-15T14:46:54.675Z,44.13
2018-02-15T14:49:22.310Z,44.51
2018-02-15T14:51:49.841Z,44.46
2018-02-15T14:54:18.175Z,45.29
2018-02-15T14:56:45.997Z,44.38
2018-02-15T14:59:13.516Z,44.41
2018-02-15T15:01:41.046Z,46.02
2018-02-15T15:04:08.619Z,46.17
2018-02-15T15:06:36.149Z,46.45
2018-02-15T15:09:03.732Z,45.98
2018-02-15T15:11:31.320Z,46.58
2018-02-15T15:13:58.862Z,46.92
2018-02-15T15:16:26.411Z,47.49
2018-02-15T15:18:54.057Z,47.73
2018-02-15T15:21:21.590Z,47.87
2018-02-15T15:23:49.131Z,48.34
2018-02-15T15:26:16.846Z,49.84
2018-02-15T15:28:44.409Z,48.86
2018-02-15T15:31:11.936Z,49.77
2018-02-15T15:33:39.514Z,50.24
2018-02-15T15:36:07.020Z,51.12
2018-02-15T15:38:34.530Z,50.50
2018-02-15T15:41:02.121Z,51.59
2018-02-15T15:43:29.656Z,51.30
2018-02-15T15:45:57.245Z,51.80
2018-02-15T15:48:25.021Z,51.65
2018-02-15T15:50:52.554Z,52.37
2018-02-15T15:53:20.094Z,52.23
2018-02-15T15:55:47.694Z,52.02
2018-02-15T15:58:15.227Z,52.26
2018-02-15T16:00:42.745Z,52.26
2018-02-15T16:03:10.309Z,52.02
2018-02-15T16:05:37.865Z,52.99
2018-02-15T16:08:05.387Z,52.99
2018-02-15T16:10:40.730Z,52.94
2018-02-15T16:13:08.279Z,52.99
2018-02-15T16:15:35.868Z,53.18
2018-02-15T16:18:03.541Z,53.61
2018-02-15T16:20:31.188Z,53.23
2018-02-15T16:22:59.683Z,53.62
2018-02-15T16:25:34.445Z,53.92
2018-02-15T16:28:03.204Z,53.90
2018-02-15T16:30:30.752Z,53.75
2018-02-15T16:32:58.368Z,53.57
2018-02-15T16:35:25.915Z,53.73
2018-02-15T16:37:53.431Z,54.13
2018-02-15T16:40:21.087Z,54.08
2018-02-15T16:42:48.608Z,54.37
2018-02-15T16:45:16.141Z,54.15
2018-02-15T16:47:43.788Z,53.96
2018-02-15T16:50:11.303Z,54.55
2018-02-15T16:52:39.643Z,54.08
2018-02-15T16:55:07.275Z,53.87
2018-02-15T16:57:34.861Z,53.86
2018-02-15T17:00:02.384Z,54.08
2018-02-15T17:02:32.079Z,54.23
2018-02-15T17:05:03.759Z,54.03
2018-02-15T17:07:31.422Z,53.89
2018-02-15T17:09:58.976Z,54.15
2018-02-15T17:12:26.507Z,54.20
2018-02-15T17:14:54.127Z,53.80
2018-02-15T17:17:21.732Z,53.84
2018-02-15T17:19:50.586Z,53.26
2018-02-15T17:22:19.096Z,53.19
2018-02-15T17:24:46.628Z,53.14
2018-02-15T17:27:14.450Z,52.70
2018-02-15T17:29:42.392Z,53.03
2018-02-15T17:32:10.090Z,52.54
2018-02-15T17:34:37.697Z,52.59
2018-02-15T17:37:06.142Z,52.97
2018-02-15T17:39:34.320Z,52.72
2018-02-15T17:42:14.196Z,52.76
2018-02-15T17:44:41.757Z,52.91
2018-02-15T17:47:09.354Z,52.88
2018-02-15T17:49:36.985Z,53.03
2018-02-15T17:52:05.705Z,52.91
2018-02-15T17:54:33.305Z,53.12
2018-02-15T17:57:00.909Z,53.05
2018-02-15T17:59:28.466Z,52.97
2018-02-15T18:04:30.601Z,53.44
2018-02-15T18:06:59.077Z,53.48
2018-02-15T18:09:27.744Z,53.24
2018-02-15T18:11:59.048Z,53.50
2018-02-15T18:14:26.573Z,53.29
2018-02-15T18:16:54.128Z,53.23
2018-02-15T18:19:21.738Z,52.77
2018-02-15T18:21:49.264Z,53.13
2018-02-15T18:24:16.841Z,53.13
2018-02-15T18:26:44.404Z,53.53
2018-02-15T18:29:11.937Z,53.20
2018-02-15T18:31:39.523Z,53.72
2018-02-15T18:34:07.117Z,53.31
2018-02-15T18:36:35.310Z,53.89
2018-02-15T18:39:02.854Z,52.98
2018-02-15T18:41:30.561Z,53.04
2018-02-15T18:43:58.119Z,52.97
2018-02-15T18:46:25.678Z,53.70
2018-02-15T18:48:53.279Z,53.27
2018-02-15T18:51:20.917Z,52.93
2018-02-15T18:53:48.440Z,53.33
2018-02-15T18:56:38.784Z,53.40
2018-02-15T19:05:34.714Z,53.75
2018-02-15T19:08:02.307Z,53.85
2018-02-15T19:10:29.862Z,53.58
2018-02-15T19:12:57.405Z,53.37
2018-02-15T19:15:25.061Z,54.10
2018-02-15T19:17:52.596Z,54.32
2018-02-15T19:20:20.129Z,54.25
2018-02-15T19:22:47.732Z,54.17
2018-02-15T19:25:15.273Z,53.93
2018-02-15T19:27:42.831Z,54.25
2018-02-15T19:30:10.459Z,54.33
2018-02-15T19:32:37.997Z,54.19
2018-02-15T19:35:05.542Z,54.48
2018-02-15T19:37:33.889Z,54.23
2018-02-15T19:40:01.434Z,55.03
2018-02-15T19:42:28.997Z,54.63
2018-02-15T19:44:56.587Z,55.15
2018-02-15T19:47:24.153Z,55.06
2018-02-15T19:49:51.671Z,55.69
2018-02-15T19:52:19.339Z,55.21
2018-02-15T19:54:46.880Z,54.84
2018-02-15T19:57:14.449Z,54.69
2018-02-15T19:59:42.106Z,54.31
2018-02-15T20:02:09.734Z,53.91
2018-02-15T20:04:37.292Z,53.90
2018-02-15T20:07:04.884Z,53.92
2018-02-15T20:09:32.454Z,54.02
2018-02-15T20:12:00.044Z,53.40
2018-02-15T20:14:27.651Z,53.79
2018-02-15T20:16:55.190Z,53.97
2018-02-15T20:19:22.797Z,53.32
2018-02-15T20:21:50.461Z,53.44
2018-02-15T20:24:17.992Z,53.50
2018-02-15T20:26:51.315Z,52.90
2018-02-15T20:29:18.872Z,52.96
2018-02-15T20:31:46.440Z,53.30
2018-02-15T20:34:14.004Z,53.32
2018-02-15T20:36:41.539Z,52.71
2018-02-15T20:39:14.698Z,53.11
2018-02-15T20:41:42.240Z,52.75
2018-02-15T20:44:09.800Z,52.77
2018-02-15T20:46:37.407Z,52.97
2018-02-15T20:49:19.901Z,52.42
2018-02-15T20:52:05.365Z,52.70
2018-02-15T20:54:38.541Z,52.55
2018-02-15T20:57:06.208Z,52.01
2018-02-15T20:59:33.778Z,51.64
2018-02-15T21:02:01.324Z,51.87
2018-02-15T21:04:28.932Z,51.55
2018-02-15T21:06:56.459Z,52.01
2018-02-15T21:09:24.013Z,52.13
2018-02-15T21:11:51.660Z,52.26
2018-02-15T21:14:19.217Z,52.20
2018-02-15T21:16:46.762Z,51.95
2018-02-15T21:19:14.341Z,52.31
2018-02-15T21:21:41.946Z,52.02
2018-02-15T21:24:09.625Z,52.10
2018-02-15T21:26:37.327Z,51.77
2018-02-15T21:29:04.864Z,51.61
2018-02-15T21:31:32.409Z,51.64
2018-02-15T21:34:00.016Z,51.54
2018-02-15T21:36:27.589Z,51.51
2018-02-15T21:38:55.141Z,51.35
2018-02-15T21:41:22.719Z,51.38
2018-02-15T21:43:50.249Z,51.03
2018-02-15T21:46:17.793Z,51.78
2018-02-15T21:48:45.368Z,51.81
2018-02-15T21:51:12.907Z,51.86
2018-02-15T21:53:40.453Z,52.12
2018-02-15T21:56:08.351Z,52.14
2018-02-15T21:58:35.886Z,51.86
2018-02-15T22:01:04.700Z,52.54
2018-02-15T22:03:33.446Z,53.14
2018-02-15T22:06:03.490Z,52.65
2018-02-15T22:08:33.162Z,52.86
2018-02-15T22:11:01.906Z,52.60
2018-02-15T22:13:31.521Z,52.75
2018-02-15T22:16:00.270Z,52.61
2018-02-15T22:18:29.651Z,52.75
2018-02-15T22:20:58.642Z,52.15
2018-02-15T22:23:26.794Z,52.13
2018-02-15T22:25:54.904Z,51.94
2018-02-15T22:28:22.924Z,52.00
2018-02-15T22:30:50.986Z,52.65
2018-02-15T22:33:19.212Z,52.56
2018-02-15T22:35:47.265Z,52.12
2018-02-15T22:38:14.998Z,52.32
2018-02-15T22:40:43.963Z,52.78
2018-02-15T22:43:11.932Z,52.02
2018-02-15T22:45:40.739Z,52.75
2018-02-15T22:48:08.666Z,52.85
2018-02-15T22:50:36.674Z,53.26
2018-02-15T22:53:04.700Z,53.13
2018-02-15T22:55:32.748Z,53.16
2018-02-15T22:58:01.438Z,53.36
2018-02-15T23:00:29.457Z,53.47
2018-02-15T23:02:58.168Z,52.98
2018-02-15T23:05:25.899Z,53.00
2018-02-15T23:07:53.965Z,52.52
2018-02-15T23:10:23.069Z,52.47
2018-02-15T23:12:51.069Z,52.69
2018-02-15T23:15:18.927Z,52.30
2018-02-15T23:17:46.543Z,52.15
2018-02-15T23:20:14.107Z,52.75
2018-02-15T23:22:41.664Z,52.45
2018-02-15T23:25:09.301Z,52.39
2018-02-15T23:27:36.879Z,52.37
2018-02-15T23:30:04.472Z,52.85
2018-02-15T23:32:32.728Z,52.59
2018-02-15T23:35:00.281Z,52.76
2018-02-15T23:37:28.025Z,53.14
2018-02-15T23:39:55.643Z,53.63
2018-02-15T23:42:23.208Z,53.58
2018-02-15T23:44:50.852Z,53.25
2018-02-15T23:47:18.573Z,52.90
2018-02-15T23:49:46.227Z,53.13
2018-02-15T23:52:13.873Z,53.44
2018-02-15T23:54:41.527Z,53.43
2018-02-15T23:57:09.108Z,53.55
2018-02-15T23:59:36.812Z,52.37
